CYGV

Details ICAO CYGV (YGV)
Name HAVRE ST PIERRE
Region Canada
Timezone America/Montreal (UTC-4.0)
Plans Departing 13
Arriving 14
Stats Elevation 124 ft / 38 m (AMSL)
Location 50.281945° -63.611389°
Runways 1
Magnetic Variation 19.236° W
Sunrise 2018-05-21 08:21:03 UTC / 2018-05-21 04:21:03 Local
Sunset 2018-05-22 00:03:54 UTC / 2018-05-21 20:03:54 Local
Advertisement - Login to hide

Runways

ID Width Length Bearing (true) Bearing (mag) Surface Threshold Offset Overrun Length
09 100 ft / 30 m 4,498 ft / 1,371 m 63.21° 82.45° Asphalt 0 ft / 0 m 0 ft / 0 m
27 100 ft / 30 m 4,498 ft / 1,371 m 243.22° 262.46° Asphalt 0 ft / 0 m 0 ft / 0 m

Approach Navaids

Runway Type Ident Frequency Range Bearing (true) Bearing (mag) Slope Elevation
09 Localiser IGV 109.30 MHz 18 nm / 33 km 62.00° 81.24° - 124 ft / 38 m (AMSL)

Map

Weather


0- 5 10 15 20 25 30 35+ Temperature / ° C

Clouds and Precipitation
Forecast for 2018-05-22 00:00 UTC. Updated an hour ago

Ground ~20,000 ft ~40,000 ft Winds

METAR

CYGV 220000Z AUTO 32012G17KT 9SM FEW250 06/M05 A2988 RMK SLP123

TAF

TAF CYGV 211938Z 2120/2208 31018G28KT P6SM SCT050 TEMPO 2120/2202 BKN050 BECMG 2122/2124 29012G22KT FM220200 29010G20KT P6SM FEW040 BECMG 2204/2206 29010KT RMK FCST BASED ON AUTO OBS. NXT FCST BY 220200Z

Frequencies

Recorded 125.95 MHz AWOS
Warning: Do not use this data for real-world aviation or navigation. No guarantee of current accuracy is given.